createdAt,value
2023-12-18T00:02:19.568Z,102272.78
2023-12-18T00:05:22.237Z,102268.91
2023-12-18T00:08:24.922Z,102259.91
2023-12-18T00:11:27.605Z,102254.34
2023-12-18T00:14:30.216Z,102252.22
2023-12-18T00:17:33.081Z,102255.03
2023-12-18T00:20:35.800Z,102259.31
2023-12-18T00:23:38.442Z,102267.44
2023-12-18T00:26:41.191Z,102260.78
2023-12-18T00:29:43.850Z,102260.97
2023-12-18T00:32:46.565Z,102265.25
2023-12-18T00:35:49.257Z,102260.41
2023-12-18T00:38:51.940Z,102253.81
2023-12-18T00:41:54.619Z,102270.50
2023-12-18T00:44:57.295Z,102267.03
2023-12-18T00:48:00.083Z,102275.44
2023-12-18T00:51:02.918Z,102269.56
2023-12-18T00:54:05.667Z,102272.22
2023-12-18T00:57:08.410Z,102270.22
2023-12-18T01:00:11.706Z,102267.75
2023-12-18T01:03:14.621Z,102276.69
2023-12-18T01:06:17.613Z,102273.41
2023-12-18T01:09:20.274Z,102274.25
2023-12-18T01:12:22.927Z,102270.81
2023-12-18T01:15:25.877Z,102261.53
2023-12-18T01:18:28.681Z,102253.03
2023-12-18T01:21:31.634Z,102254.63
2023-12-18T01:24:34.469Z,102254.69
2023-12-18T01:27:37.436Z,102247.88
2023-12-18T01:30:40.379Z,102247.09
2023-12-18T01:33:43.193Z,102242.00
2023-12-18T01:36:45.982Z,102240.91
2023-12-18T01:39:48.642Z,102225.56
2023-12-18T01:42:51.322Z,102225.75
2023-12-18T01:45:58.943Z,102228.63
2023-12-18T01:49:02.655Z,102233.78
2023-12-18T01:52:06.331Z,102247.97
2023-12-18T01:55:11.503Z,102242.59
2023-12-18T01:58:15.039Z,102236.38
2023-12-18T02:01:17.982Z,102223.50
2023-12-18T02:04:21.324Z,102232.06
2023-12-18T02:07:25.074Z,102235.75
2023-12-18T02:10:28.252Z,102230.94
2023-12-18T02:13:30.906Z,102232.19
2023-12-18T02:16:33.916Z,102223.38
2023-12-18T02:19:36.896Z,102224.75
2023-12-18T02:22:48.563Z,102217.41
2023-12-18T02:25:51.928Z,102213.91
2023-12-18T02:28:54.676Z,102213.59
2023-12-18T02:31:58.780Z,102215.88
2023-12-18T02:35:01.809Z,102217.97
2023-12-18T02:38:04.905Z,102212.19
2023-12-18T02:41:07.548Z,102211.84
2023-12-18T02:44:10.147Z,102206.25
2023-12-18T02:47:13.049Z,102203.75
2023-12-18T02:50:16.797Z,102196.47
2023-12-18T02:53:19.736Z,102187.59
2023-12-18T02:56:22.432Z,102184.78
2023-12-18T02:59:25.121Z,102174.28
2023-12-18T03:02:27.760Z,102172.44
2023-12-18T03:05:30.774Z,102177.31
2023-12-18T03:08:33.727Z,102169.03
2023-12-18T03:11:36.646Z,102163.47
2023-12-18T03:14:39.524Z,102159.38
2023-12-18T03:17:42.530Z,102164.53
2023-12-18T03:20:45.583Z,102161.16
2023-12-18T03:23:48.499Z,102163.91
2023-12-18T03:26:51.367Z,102169.94
2023-12-18T03:29:54.307Z,102187.53
2023-12-18T03:32:57.449Z,102184.50
2023-12-18T03:36:00.386Z,102187.97
2023-12-18T03:39:03.418Z,102188.59
2023-12-18T03:42:06.431Z,102180.72
2023-12-18T03:45:10.050Z,102174.00
2023-12-18T03:48:12.964Z,102181.28
2023-12-18T03:51:15.759Z,102187.91
2023-12-18T03:54:18.375Z,102183.59
2023-12-18T03:57:21.087Z,102180.72
2023-12-18T04:00:23.761Z,102188.94
2023-12-18T04:03:26.456Z,102192.34
2023-12-18T04:06:29.581Z,102188.97
2023-12-18T04:09:32.303Z,102183.69
2023-12-18T04:12:35.108Z,102181.56
2023-12-18T04:15:37.835Z,102166.63
2023-12-18T04:18:40.781Z,102183.84
2023-12-18T04:21:43.584Z,102190.50
2023-12-18T04:24:46.301Z,102188.91
2023-12-18T04:27:49.176Z,102182.09
2023-12-18T04:30:52.010Z,102189.66
2023-12-18T04:33:55.006Z,102185.63
2023-12-18T04:36:59.507Z,102182.47
2023-12-18T04:40:04.968Z,102178.22
2023-12-18T04:43:07.735Z,102175.41
2023-12-18T04:46:10.370Z,102170.41
2023-12-18T04:49:14.456Z,102179.03
2023-12-18T04:52:17.181Z,102178.38
2023-12-18T04:55:19.799Z,102169.22
2023-12-18T04:58:22.444Z,102164.13
2023-12-18T05:01:25.094Z,102165.81
2023-12-18T05:04:27.825Z,102164.56
2023-12-18T05:07:30.567Z,102157.97
2023-12-18T05:10:33.220Z,102145.94
2023-12-18T05:13:35.811Z,102154.31
2023-12-18T05:16:38.409Z,102154.31
2023-12-18T05:19:41.243Z,102151.66
2023-12-18T05:22:44.252Z,102159.03
2023-12-18T05:25:46.956Z,102158.75
2023-12-18T05:28:49.614Z,102152.53
2023-12-18T05:31:52.399Z,102148.97
2023-12-18T05:34:55.079Z,102154.72
2023-12-18T05:37:57.764Z,102156.56
2023-12-18T05:41:00.533Z,102153.06
2023-12-18T05:44:03.168Z,102147.00
2023-12-18T05:47:05.854Z,102151.16
2023-12-18T05:50:09.173Z,102144.31
2023-12-18T05:53:11.835Z,102141.31
2023-12-18T05:56:14.753Z,102143.13
2023-12-18T05:59:17.359Z,102142.34
2023-12-18T06:02:19.991Z,102146.31
2023-12-18T06:05:22.610Z,102148.69
2023-12-18T06:08:25.206Z,102150.03
2023-12-18T06:11:27.869Z,102153.41
2023-12-18T06:14:30.483Z,102143.13
2023-12-18T06:17:33.834Z,102141.00
2023-12-18T06:20:38.441Z,102159.13
2023-12-18T06:23:44.030Z,102156.41
2023-12-18T06:26:46.675Z,102167.44
2023-12-18T06:29:49.405Z,102169.06
2023-12-18T06:32:52.235Z,102168.88
2023-12-18T06:35:55.355Z,102166.75
2023-12-18T06:38:58.022Z,102168.09
2023-12-18T06:42:00.706Z,102170.25
2023-12-18T06:45:04.314Z,102170.94
2023-12-18T06:48:07.302Z,102165.84
2023-12-18T06:51:10.984Z,102190.56
2023-12-18T06:54:13.813Z,102192.00
2023-12-18T06:57:17.510Z,102189.78
2023-12-18T07:00:28.850Z,102187.53
2023-12-18T07:03:38.184Z,102183.38
2023-12-18T07:06:41.028Z,102186.16
2023-12-18T07:09:43.814Z,102189.13
2023-12-18T07:12:47.083Z,102186.22
2023-12-18T07:15:51.036Z,102197.03
2023-12-18T07:18:54.863Z,102189.22
2023-12-18T07:21:57.629Z,102187.84
2023-12-18T07:25:00.391Z,102187.59
2023-12-18T07:28:03.282Z,102186.97
2023-12-18T07:31:06.022Z,102195.75
2023-12-18T07:34:08.967Z,102188.50
2023-12-18T07:37:11.694Z,102180.34
2023-12-18T07:40:14.433Z,102161.16
2023-12-18T07:43:17.233Z,102190.63
2023-12-18T07:46:20.538Z,102184.53
2023-12-18T07:49:23.992Z,102185.84
2023-12-18T07:52:26.768Z,102183.84
2023-12-18T07:55:29.453Z,102195.56
2023-12-18T07:58:32.158Z,102204.16
2023-12-18T08:01:35.784Z,102199.44
2023-12-18T08:04:38.600Z,102205.75
2023-12-18T08:07:41.366Z,102203.91
2023-12-18T08:10:44.320Z,102197.91
2023-12-18T08:13:50.747Z,102184.09
2023-12-18T08:16:53.409Z,102177.56
2023-12-18T08:19:56.073Z,102178.97
2023-12-18T08:22:58.715Z,102187.47
2023-12-18T08:26:01.332Z,102183.91
2023-12-18T08:29:07.815Z,102178.22
2023-12-18T08:32:11.759Z,102173.63
2023-12-18T08:35:14.587Z,102184.50
2023-12-18T08:38:17.244Z,102172.59
2023-12-18T08:41:19.900Z,102174.47
2023-12-18T08:44:23.056Z,102168.00
2023-12-18T08:47:25.905Z,102164.28
2023-12-18T08:50:28.671Z,102166.38
2023-12-18T08:53:31.710Z,102126.69
2023-12-18T08:56:34.440Z,102171.03
2023-12-18T08:59:37.233Z,102164.25
2023-12-18T09:02:40.109Z,102164.38
2023-12-18T09:08:46.143Z,102151.00
2023-12-18T09:11:48.824Z,102136.13
2023-12-18T09:14:51.518Z,102140.31
2023-12-18T09:17:54.212Z,102143.09
2023-12-18T09:20:57.296Z,102138.16
2023-12-18T09:24:00.019Z,102132.50
2023-12-18T09:27:02.799Z,102137.66
2023-12-18T09:30:07.927Z,102123.94
2023-12-18T09:33:12.239Z,102125.78
2023-12-18T09:36:15.656Z,102117.22
2023-12-18T09:39:20.996Z,102116.97
2023-12-18T09:42:23.711Z,102118.06
2023-12-18T09:45:27.063Z,102104.81
2023-12-18T09:48:30.043Z,102102.31
2023-12-18T09:51:38.031Z,102099.25
2023-12-18T09:54:44.356Z,102104.59
2023-12-18T09:57:50.281Z,102102.88
2023-12-18T10:00:53.898Z,102096.94
2023-12-18T10:03:56.902Z,102095.53
2023-12-18T10:07:00.556Z,102086.91
2023-12-18T10:10:03.520Z,102084.41
2023-12-18T10:13:08.541Z,102090.47
2023-12-18T10:16:12.195Z,102086.53
2023-12-18T10:19:14.910Z,102077.75
2023-12-18T10:22:17.964Z,102081.78
2023-12-18T10:25:21.644Z,102063.09
2023-12-18T10:28:24.295Z,102067.63
2023-12-18T10:31:27.126Z,102075.25
2023-12-18T10:34:29.974Z,102068.84
2023-12-18T10:37:34.550Z,102057.63
2023-12-18T10:40:38.533Z,102052.31
2023-12-18T10:43:41.868Z,102052.72
2023-12-18T10:46:49.058Z,102045.72
2023-12-18T10:49:54.653Z,102030.81
2023-12-18T10:53:00.115Z,102040.44
2023-12-18T10:56:05.371Z,102037.09
2023-12-18T10:59:09.639Z,102033.63
2023-12-18T11:02:13.773Z,102030.38
2023-12-18T11:05:18.569Z,102028.78
2023-12-18T11:08:21.854Z,102013.72
2023-12-18T11:11:26.136Z,102007.84
2023-12-18T11:15:03.708Z,102002.78
2023-12-18T11:18:09.515Z,102015.84
2023-12-18T11:21:12.333Z,102002.44
2023-12-18T11:24:15.096Z,101996.34
2023-12-18T11:27:18.932Z,101992.34
2023-12-18T11:30:25.413Z,101977.38
2023-12-18T11:33:36.064Z,101975.41
2023-12-18T11:36:45.288Z,101974.81
2023-12-18T11:39:48.066Z,101969.78
2023-12-18T11:42:51.037Z,101969.19
2023-12-18T11:46:09.861Z,101960.81
2023-12-18T11:49:18.818Z,101952.00
2023-12-18T11:52:21.815Z,101957.97
2023-12-18T11:55:48.602Z,101951.75
2023-12-18T11:58:51.567Z,101954.09
2023-12-18T12:01:54.531Z,101944.91
2023-12-18T12:04:58.026Z,101938.66
2023-12-18T12:08:02.283Z,101934.06
2023-12-18T12:11:04.928Z,101924.03
2023-12-18T12:14:07.687Z,101921.41
2023-12-18T12:17:10.318Z,101926.25
2023-12-18T12:20:15.959Z,101931.81
2023-12-18T12:23:18.792Z,101917.09
2023-12-18T12:26:24.123Z,101925.56
2023-12-18T12:29:27.824Z,101910.34
2023-12-18T12:32:30.641Z,101915.53
2023-12-18T12:35:33.656Z,101916.13
2023-12-18T12:38:37.901Z,101911.22
2023-12-18T12:41:40.761Z,101918.16
2023-12-18T12:44:43.424Z,101913.06
2023-12-18T12:47:47.701Z,101898.91
2023-12-18T12:50:51.695Z,101906.13
2023-12-18T12:53:54.321Z,101895.84
2023-12-18T12:56:57.023Z,101900.94
2023-12-18T12:59:59.979Z,101896.09
2023-12-18T13:03:03.389Z,101891.72
2023-12-18T13:06:06.589Z,101884.09
2023-12-18T13:09:10.802Z,101891.88
2023-12-18T13:12:16.688Z,101903.03
2023-12-18T13:15:19.549Z,101898.47
2023-12-18T13:18:23.805Z,101896.81
2023-12-18T13:21:26.648Z,101891.66
2023-12-18T13:24:30.354Z,101897.19
2023-12-18T13:27:33.060Z,101895.00
2023-12-18T13:30:36.302Z,101892.50
2023-12-18T13:33:39.117Z,101896.28
2023-12-18T13:36:42.015Z,101900.03
2023-12-18T13:39:44.914Z,101900.63
2023-12-18T13:42:47.861Z,101903.59
2023-12-18T13:45:50.640Z,101893.22
2023-12-18T13:48:53.411Z,101898.41
2023-12-18T13:51:56.213Z,101890.88
2023-12-18T13:54:58.896Z,101904.31
2023-12-18T13:58:01.597Z,101888.75
2023-12-18T14:01:05.286Z,101893.22
2023-12-18T14:04:08.338Z,101895.09
2023-12-18T14:07:11.181Z,101892.38
2023-12-18T14:10:13.935Z,101895.81
2023-12-18T14:13:16.678Z,101893.44
2023-12-18T14:16:19.400Z,101894.38
2023-12-18T14:19:22.120Z,101898.13
2023-12-18T14:22:25.135Z,101885.69
2023-12-18T14:25:27.878Z,101886.75
2023-12-18T14:28:32.284Z,101893.78
2023-12-18T14:31:35.336Z,101877.78
2023-12-18T14:34:38.213Z,101877.53
2023-12-18T14:37:40.958Z,101878.56
2023-12-18T14:40:43.668Z,101876.47
2023-12-18T14:43:46.921Z,101878.50
2023-12-18T14:46:49.672Z,101874.31
2023-12-18T14:49:52.440Z,101872.78
2023-12-18T14:52:57.165Z,101877.91
2023-12-18T14:55:59.837Z,101875.34
2023-12-18T14:59:02.538Z,101874.53
2023-12-18T15:02:05.224Z,101878.38
2023-12-18T15:05:08.071Z,101877.75
2023-12-18T15:08:10.732Z,101877.47
2023-12-18T15:11:13.427Z,101874.25
2023-12-18T15:14:16.026Z,101872.94
2023-12-18T15:17:18.762Z,101870.97
2023-12-18T15:20:21.598Z,101863.66
2023-12-18T15:23:24.201Z,101863.44
2023-12-18T15:26:26.815Z,101866.00
2023-12-18T15:29:31.194Z,101855.88
2023-12-18T15:32:33.850Z,101863.13
2023-12-18T15:35:36.808Z,101865.28
2023-12-18T15:38:39.849Z,101849.28
2023-12-18T15:41:42.501Z,101869.59
2023-12-18T15:44:46.947Z,101869.25
2023-12-18T15:47:49.718Z,101860.53
2023-12-18T15:50:52.490Z,101849.91
2023-12-18T15:53:55.944Z,101859.38
2023-12-18T15:56:58.848Z,101863.91
2023-12-18T16:00:02.960Z,101857.94
2023-12-18T16:03:12.475Z,101865.31
2023-12-18T16:06:15.386Z,101866.66
2023-12-18T16:09:18.018Z,101864.75
2023-12-18T16:12:20.951Z,101860.19
2023-12-18T16:15:23.712Z,101857.78
2023-12-18T16:18:26.551Z,101851.47
2023-12-18T16:21:30.644Z,101844.31
2023-12-18T16:24:34.200Z,101852.16
2023-12-18T16:27:36.864Z,101853.16
2023-12-18T16:30:45.037Z,101843.16
2023-12-18T16:33:52.672Z,101840.13
2023-12-18T16:36:55.409Z,101842.72
2023-12-18T16:39:58.853Z,101842.63
2023-12-18T16:43:01.656Z,101853.22
2023-12-18T16:46:05.102Z,101843.97
2023-12-18T16:49:07.806Z,101845.50
2023-12-18T16:52:10.543Z,101842.59
2023-12-18T16:55:13.608Z,101854.06
2023-12-18T16:58:16.328Z,101850.75
2023-12-18T17:01:21.318Z,101846.81
2023-12-18T17:04:24.193Z,101851.03
2023-12-18T17:07:27.225Z,101839.81
2023-12-18T17:10:30.264Z,101838.53
2023-12-18T17:13:32.914Z,101824.13
2023-12-18T17:16:36.093Z,101801.28
2023-12-18T17:19:38.830Z,101819.91
2023-12-18T17:22:42.051Z,101816.22
2023-12-18T17:25:45.087Z,101818.78
2023-12-18T17:28:47.731Z,101825.25
2023-12-18T17:31:50.521Z,101824.78
2023-12-18T17:34:53.191Z,101823.56
2023-12-18T17:37:55.833Z,101835.94
2023-12-18T17:40:58.475Z,101836.44
2023-12-18T17:44:01.169Z,101836.56
2023-12-18T17:47:05.216Z,101827.47
2023-12-18T17:50:08.412Z,101834.91
2023-12-18T17:53:11.203Z,101842.31
2023-12-18T17:56:13.953Z,101840.38
2023-12-18T17:59:16.608Z,101843.94
2023-12-18T18:02:19.288Z,101838.91
2023-12-18T18:05:22.030Z,101835.28
2023-12-18T18:08:24.752Z,101837.03
2023-12-18T18:11:27.436Z,101834.28
2023-12-18T18:14:30.195Z,101832.94
2023-12-18T18:17:33.073Z,101823.75
2023-12-18T18:20:36.107Z,101822.06
2023-12-18T18:23:38.765Z,101828.94
2023-12-18T18:26:41.782Z,101832.06
2023-12-18T18:29:49.854Z,101834.63
2023-12-18T18:32:53.738Z,101822.47
2023-12-18T18:35:56.567Z,101814.34
2023-12-18T18:38:59.354Z,101809.97
2023-12-18T18:42:02.528Z,101815.75
2023-12-18T18:45:05.633Z,101809.88
2023-12-18T18:48:08.818Z,101806.22
2023-12-18T18:51:11.613Z,101806.91
2023-12-18T18:54:14.415Z,101804.84
2023-12-18T18:57:17.400Z,101811.88
2023-12-18T19:00:21.967Z,101801.63
2023-12-18T19:03:24.786Z,101785.41
2023-12-18T19:06:27.864Z,101793.44
2023-12-18T19:09:30.830Z,101788.69
2023-12-18T19:12:35.900Z,101793.34
2023-12-18T19:15:38.854Z,101789.28
2023-12-18T19:18:41.999Z,101791.13
2023-12-18T19:21:44.763Z,101792.59
2023-12-18T19:24:47.617Z,101793.44
2023-12-18T19:27:50.525Z,101792.84
2023-12-18T19:30:54.106Z,101789.47
2023-12-18T19:33:57.023Z,101778.78
2023-12-18T19:36:59.889Z,101770.91
2023-12-18T19:40:02.854Z,101779.03
2023-12-18T19:43:07.323Z,101774.56
2023-12-18T19:46:10.451Z,101787.78
2023-12-18T19:49:14.434Z,101786.72
2023-12-18T19:52:20.250Z,101791.09
2023-12-18T19:55:22.912Z,101780.44
2023-12-18T19:58:27.821Z,101788.47
2023-12-18T20:01:30.554Z,101779.84
2023-12-18T20:04:33.234Z,101796.44
2023-12-18T20:07:36.144Z,101783.53
2023-12-18T20:10:39.382Z,101783.75
2023-12-18T20:13:42.009Z,101783.22
2023-12-18T20:16:44.904Z,101774.31
2023-12-18T20:19:47.694Z,101761.09
2023-12-18T20:22:50.419Z,101762.72
2023-12-18T20:25:53.126Z,101763.50
2023-12-18T20:28:55.773Z,101776.38
2023-12-18T20:31:58.466Z,101761.41
2023-12-18T20:35:06.343Z,101757.50
2023-12-18T20:38:11.214Z,101759.69
2023-12-18T20:41:14.052Z,101750.22
2023-12-18T20:44:18.573Z,101742.75
2023-12-18T20:47:21.212Z,101747.75
2023-12-18T20:50:23.941Z,101746.66
2023-12-18T20:53:26.537Z,101741.59
2023-12-18T20:56:29.257Z,101743.34
2023-12-18T20:59:32.166Z,101731.97
2023-12-18T21:02:34.846Z,101734.28
2023-12-18T21:05:37.587Z,101748.00
2023-12-18T21:08:40.326Z,101737.28
2023-12-18T21:11:43.206Z,101739.72
2023-12-18T21:14:45.890Z,101732.91
2023-12-18T21:17:48.689Z,101737.00
2023-12-18T21:20:51.365Z,101739.06
2023-12-18T21:23:57.079Z,101745.88
2023-12-18T21:27:00.140Z,101744.72
2023-12-18T21:30:02.782Z,101737.34
2023-12-18T21:33:05.634Z,101721.69
2023-12-18T21:36:11.055Z,101713.34
2023-12-18T21:39:13.877Z,101716.19
2023-12-18T21:42:16.505Z,101712.72
2023-12-18T21:45:20.481Z,101715.94
2023-12-18T21:48:23.379Z,101718.25
2023-12-18T21:51:31.057Z,101718.94
2023-12-18T21:54:40.368Z,101712.91
2023-12-18T21:57:43.163Z,101705.88
2023-12-18T22:00:46.021Z,101715.66
2023-12-18T22:03:48.784Z,101714.53
2023-12-18T22:06:51.768Z,101718.91
2023-12-18T22:09:56.797Z,101718.44
2023-12-18T22:13:00.133Z,101717.38
2023-12-18T22:16:03.002Z,101711.22
2023-12-18T22:19:05.725Z,101713.69
2023-12-18T22:22:08.388Z,101707.28
2023-12-18T22:25:11.229Z,101703.41
2023-12-18T22:28:13.905Z,101698.19
2023-12-18T22:31:16.823Z,101690.38
2023-12-18T22:34:19.660Z,101694.22
2023-12-18T22:37:22.415Z,101684.59
2023-12-18T22:40:25.058Z,101683.81
2023-12-18T22:43:27.693Z,101674.38
2023-12-18T22:46:30.350Z,101673.41
2023-12-18T22:49:33.184Z,101669.19
2023-12-18T22:52:35.926Z,101662.88
2023-12-18T22:55:38.537Z,101654.78
2023-12-18T22:58:41.202Z,101648.81
2023-12-18T23:01:43.842Z,101656.34
2023-12-18T23:04:46.680Z,101648.81
2023-12-18T23:07:50.247Z,101645.59
2023-12-18T23:10:53.624Z,101644.63
2023-12-18T23:13:56.318Z,101645.28
2023-12-18T23:16:58.957Z,101645.88
2023-12-18T23:20:01.949Z,101632.16
2023-12-18T23:23:04.691Z,101628.63
2023-12-18T23:26:09.849Z,101627.38
2023-12-18T23:29:12.593Z,101622.28
2023-12-18T23:32:15.538Z,101615.28
2023-12-18T23:35:18.330Z,101618.06
2023-12-18T23:38:21.182Z,101609.25
2023-12-18T23:41:23.916Z,101597.06
2023-12-18T23:44:26.720Z,101598.28
2023-12-18T23:47:29.425Z,101600.09
2023-12-18T23:50:32.131Z,101605.38
2023-12-18T23:53:34.873Z,101600.38
2023-12-18T23:56:40.458Z,101597.41
2023-12-18T23:59:43.681Z,101598.97
